sensor_id;sensor_type;location;lat;lon;timestamp;P1;P2;P0
44871;PMS7003;30602;51.060;17.226;2024-01-11T00:01:54;214;154;78
44871;PMS7003;30602;51.060;17.226;2024-01-11T00:05:51;182;135;70
44871;PMS7003;30602;51.060;17.226;2024-01-11T00:10:05;152;110;55
44871;PMS7003;30602;51.060;17.226;2024-01-11T00:13:53;197;142;75
44871;PMS7003;30602;51.060;17.226;2024-01-11T00:17:32;186;140;75
44871;PMS7003;30602;51.060;17.226;2024-01-11T00:21:21;203;143;69
44871;PMS7003;30602;51.060;17.226;2024-01-11T00:24:56;172;140;75
44871;PMS7003;30602;51.060;17.226;2024-01-11T00:29:02;168;131;71
44871;PMS7003;30602;51.060;17.226;2024-01-11T00:34:04;220;155;80
44871;PMS7003;30602;51.060;17.226;2024-01-11T00:37:32;181;140;74
44871;PMS7003;30602;51.060;17.226;2024-01-11T00:41:04;188;140;77
44871;PMS7003;30602;51.060;17.226;2024-01-11T00:44:30;187;137;71
44871;PMS7003;30602;51.060;17.226;2024-01-11T00:47:58;178;138;73
44871;PMS7003;30602;51.060;17.226;2024-01-11T00:52:27;189;142;71
44871;PMS7003;30602;51.060;17.226;2024-01-11T01:00:34;183;133;71
44871;PMS7003;30602;51.060;17.226;2024-01-11T01:04:19;167;122;67
44871;PMS7003;30602;51.060;17.226;2024-01-11T01:07:46;181;142;73
44871;PMS7003;30602;51.060;17.226;2024-01-11T01:12:07;154;115;58
44871;PMS7003;30602;51.060;17.226;2024-01-11T01:16:02;163;118;57
44871;PMS7003;30602;51.060;17.226;2024-01-11T01:19:57;183;133;71
44871;PMS7003;30602;51.060;17.226;2024-01-11T01:23:29;188;141;70
44871;PMS7003;30602;51.060;17.226;2024-01-11T01:28:06;193;147;77
44871;PMS7003;30602;51.060;17.226;2024-01-11T01:31:43;180;130;68
44871;PMS7003;30602;51.060;17.226;2024-01-11T01:35:08;166;131;70
44871;PMS7003;30602;51.060;17.226;2024-01-11T01:39:14;174;131;70
44871;PMS7003;30602;51.060;17.226;2024-01-11T01:43:06;173;131;68
44871;PMS7003;30602;51.060;17.226;2024-01-11T01:47:02;169;128;70
44871;PMS7003;30602;51.060;17.226;2024-01-11T01:50:43;183;133;69
44871;PMS7003;30602;51.060;17.226;2024-01-11T01:58:27;120;102;63
44871;PMS7003;30602;51.060;17.226;2024-01-11T02:02:27;165;129;71
44871;PMS7003;30602;51.060;17.226;2024-01-11T02:06:21;186;131;70
44871;PMS7003;30602;51.060;17.226;2024-01-11T02:10:04;159;116;60
44871;PMS7003;30602;51.060;17.226;2024-01-11T02:13:46;167;127;69
44871;PMS7003;30602;51.060;17.226;2024-01-11T02:17:27;169;127;66
44871;PMS7003;30602;51.060;17.226;2024-01-11T02:20:49;175;126;66
44871;PMS7003;30602;51.060;17.226;2024-01-11T02:24:45;165;121;62
44871;PMS7003;30602;51.060;17.226;2024-01-11T02:28:24;172;125;72
44871;PMS7003;30602;51.060;17.226;2024-01-11T02:32:20;175;132;69
44871;PMS7003;30602;51.060;17.226;2024-01-11T02:36:41;162;121;68
44871;PMS7003;30602;51.060;17.226;2024-01-11T02:41:02;144;99;49
44871;PMS7003;30602;51.060;17.226;2024-01-11T02:44:59;162;114;66
44871;PMS7003;30602;51.060;17.226;2024-01-11T02:48:29;157;128;68
44871;PMS7003;30602;51.060;17.226;2024-01-11T02:52:05;180;129;70
44871;PMS7003;30602;51.060;17.226;2024-01-11T02:55:33;173;133;66
44871;PMS7003;30602;51.060;17.226;2024-01-11T02:59:26;132;98;51
44871;PMS7003;30602;51.060;17.226;2024-01-11T03:03:10;160;116;57
44871;PMS7003;30602;51.060;17.226;2024-01-11T03:07:20;119;99;63
44871;PMS7003;30602;51.060;17.226;2024-01-11T03:11:06;151;110;55
44871;PMS7003;30602;51.060;17.226;2024-01-11T03:14:42;142;98;58
44871;PMS7003;30602;51.060;17.226;2024-01-11T03:19:19;161;120;62
44871;PMS7003;30602;51.060;17.226;2024-01-11T03:23:06;145;109;58
44871;PMS7003;30602;51.060;17.226;2024-01-11T03:27:20;131;110;63
44871;PMS7003;30602;51.060;17.226;2024-01-11T03:31:01;147;113;63
44871;PMS7003;30602;51.060;17.226;2024-01-11T03:34:22;149;118;64
44871;PMS7003;30602;51.060;17.226;2024-01-11T03:37:47;143;112;55
44871;PMS7003;30602;51.060;17.226;2024-01-11T03:41:15;141;104;58
44871;PMS7003;30602;51.060;17.226;2024-01-11T03:45:04;156;108;58
44871;PMS7003;30602;51.060;17.226;2024-01-11T03:49:03;117;89;51
44871;PMS7003;30602;51.060;17.226;2024-01-11T03:53:19;134;94;52
44871;PMS7003;30602;51.060;17.226;2024-01-11T03:57:25;126;100;55
44871;PMS7003;30602;51.060;17.226;2024-01-11T04:00:53;130;96;52
44871;PMS7003;30602;51.060;17.226;2024-01-11T04:04:29;134;93;45
44871;PMS7003;30602;51.060;17.226;2024-01-11T04:08:43;121;95;51
44871;PMS7003;30602;51.060;17.226;2024-01-11T04:13:08;130;101;55
44871;PMS7003;30602;51.060;17.226;2024-01-11T04:20:55;140;103;55
44871;PMS7003;30602;51.060;17.226;2024-01-11T04:25:32;146;105;56
44871;PMS7003;30602;51.060;17.226;2024-01-11T04:28:56;128;92;51
44871;PMS7003;30602;51.060;17.226;2024-01-11T04:32:34;129;91;55
44871;PMS7003;30602;51.060;17.226;2024-01-11T04:36:17;136;101;53
44871;PMS7003;30602;51.060;17.226;2024-01-11T04:40:04;115;92;52
44871;PMS7003;30602;51.060;17.226;2024-01-11T04:43:42;120;91;50
44871;PMS7003;30602;51.060;17.226;2024-01-11T04:47:23;127;83;48
44871;PMS7003;30602;51.060;17.226;2024-01-11T04:51:06;136;102;56
44871;PMS7003;30602;51.060;17.226;2024-01-11T04:54:47;127;97;51
44871;PMS7003;30602;51.060;17.226;2024-01-11T04:58:16;121;105;53
44871;PMS7003;30602;51.060;17.226;2024-01-11T05:06:22;123;91;48
44871;PMS7003;30602;51.060;17.226;2024-01-11T05:10:39;117;83;47
44871;PMS7003;30602;51.060;17.226;2024-01-11T05:14:27;114;82;46
44871;PMS7003;30602;51.060;17.226;2024-01-11T05:18:48;106;70;41
44871;PMS7003;30602;51.060;17.226;2024-01-11T05:22:58;106;72;43
44871;PMS7003;30602;51.060;17.226;2024-01-11T05:26:37;111;77;44
44871;PMS7003;30602;51.060;17.226;2024-01-11T05:34:17;105;76;44
44871;PMS7003;30602;51.060;17.226;2024-01-11T05:38:05;104;79;42
44871;PMS7003;30602;51.060;17.226;2024-01-11T05:41:57;97;67;29
44871;PMS7003;30602;51.060;17.226;2024-01-11T05:45:43;110;83;46
44871;PMS7003;30602;51.060;17.226;2024-01-11T05:49:15;135;99;52
44871;PMS7003;30602;51.060;17.226;2024-01-11T05:53:21;104;77;40
44871;PMS7003;30602;51.060;17.226;2024-01-11T05:57:40;117;80;45
44871;PMS7003;30602;51.060;17.226;2024-01-11T06:01:20;115;79;45
44871;PMS7003;30602;51.060;17.226;2024-01-11T06:05:20;104;74;44
44871;PMS7003;30602;51.060;17.226;2024-01-11T06:09:01;105;74;43
44871;PMS7003;30602;51.060;17.226;2024-01-11T06:12:37;98;74;42
44871;PMS7003;30602;51.060;17.226;2024-01-11T06:21:09;107;80;46
44871;PMS7003;30602;51.060;17.226;2024-01-11T06:29:04;106;75;43
44871;PMS7003;30602;51.060;17.226;2024-01-11T06:33:07;105;72;42
44871;PMS7003;30602;51.060;17.226;2024-01-11T06:36:56;94;65;39
44871;PMS7003;30602;51.060;17.226;2024-01-11T06:40:48;90;66;39
44871;PMS7003;30602;51.060;17.226;2024-01-11T06:44:22;94;62;38
44871;PMS7003;30602;51.060;17.226;2024-01-11T06:48:00;90;65;38
44871;PMS7003;30602;51.060;17.226;2024-01-11T06:51:31;91;65;38
44871;PMS7003;30602;51.060;17.226;2024-01-11T06:55:25;89;64;39
44871;PMS7003;30602;51.060;17.226;2024-01-11T07:03:31;98;68;40
44871;PMS7003;30602;51.060;17.226;2024-01-11T07:11:19;101;71;42
44871;PMS7003;30602;51.060;17.226;2024-01-11T07:15:35;117;83;46
44871;PMS7003;30602;51.060;17.226;2024-01-11T07:19:43;113;80;45
44871;PMS7003;30602;51.060;17.226;2024-01-11T07:24:00;110;78;46
44871;PMS7003;30602;51.060;17.226;2024-01-11T07:27:44;92;68;40
44871;PMS7003;30602;51.060;17.226;2024-01-11T07:31:36;96;66;39
44871;PMS7003;30602;51.060;17.226;2024-01-11T07:35:42;99;66;37
44871;PMS7003;30602;51.060;17.226;2024-01-11T07:39:34;79;55;33
44871;PMS7003;30602;51.060;17.226;2024-01-11T07:43:28;85;61;37
44871;PMS7003;30602;51.060;17.226;2024-01-11T07:47:14;81;59;32
44871;PMS7003;30602;51.060;17.226;2024-01-11T07:51:17;71;53;30
44871;PMS7003;30602;51.060;17.226;2024-01-11T07:55:43;60;45;29
44871;PMS7003;30602;51.060;17.226;2024-01-11T07:59:19;79;55;32
44871;PMS7003;30602;51.060;17.226;2024-01-11T08:02:48;58;41;26
44871;PMS7003;30602;51.060;17.226;2024-01-11T08:06:15;68;43;27
44871;PMS7003;30602;51.060;17.226;2024-01-11T08:09:47;55;42;25
44871;PMS7003;30602;51.060;17.226;2024-01-11T08:17:43;56;41;24
44871;PMS7003;30602;51.060;17.226;2024-01-11T08:22:00;56;40;24
44871;PMS7003;30602;51.060;17.226;2024-01-11T08:25:48;56;39;24
44871;PMS7003;30602;51.060;17.226;2024-01-11T08:29:40;51;33;18
44871;PMS7003;30602;51.060;17.226;2024-01-11T08:33:40;57;42;24
44871;PMS7003;30602;51.060;17.226;2024-01-11T08:37:50;52;38;22
44871;PMS7003;30602;51.060;17.226;2024-01-11T08:41:32;41;32;21
44871;PMS7003;30602;51.060;17.226;2024-01-11T08:45:37;54;42;23
44871;PMS7003;30602;51.060;17.226;2024-01-11T08:49:52;59;41;23
44871;PMS7003;30602;51.060;17.226;2024-01-11T08:57:22;43;30;19
44871;PMS7003;30602;51.060;17.226;2024-01-11T09:01:57;53;39;23
44871;PMS7003;30602;51.060;17.226;2024-01-11T09:06:06;56;39;21
44871;PMS7003;30602;51.060;17.226;2024-01-11T09:10:05;52;40;23
44871;PMS7003;30602;51.060;17.226;2024-01-11T09:14:22;55;40;23
44871;PMS7003;30602;51.060;17.226;2024-01-11T09:18:12;55;41;21
44871;PMS7003;30602;51.060;17.226;2024-01-11T09:22:15;76;58;35
44871;PMS7003;30602;51.060;17.226;2024-01-11T09:25:45;34;29;20
44871;PMS7003;30602;51.060;17.226;2024-01-11T09:29:29;47;32;19
44871;PMS7003;30602;51.060;17.226;2024-01-11T09:33:08;41;28;19
44871;PMS7003;30602;51.060;17.226;2024-01-11T09:36:49;46;33;18
44871;PMS7003;30602;51.060;17.226;2024-01-11T09:41:08;52;34;19
44871;PMS7003;30602;51.060;17.226;2024-01-11T09:45:24;34;20;12
44871;PMS7003;30602;51.060;17.226;2024-01-11T09:49:05;39;30;19
44871;PMS7003;30602;51.060;17.226;2024-01-11T09:53:38;31;23;17
44871;PMS7003;30602;51.060;17.226;2024-01-11T09:57:40;34;28;18
44871;PMS7003;30602;51.060;17.226;2024-01-11T10:01:39;42;34;19
44871;PMS7003;30602;51.060;17.226;2024-01-11T10:05:04;41;31;18
44871;PMS7003;30602;51.060;17.226;2024-01-11T10:08:53;42;26;17
44871;PMS7003;30602;51.060;17.226;2024-01-11T10:12:46;74;31;17
44871;PMS7003;30602;51.060;17.226;2024-01-11T10:16:53;55;37;20
44871;PMS7003;30602;51.060;17.226;2024-01-11T10:20:37;56;40;19
44871;PMS7003;30602;51.060;17.226;2024-01-11T10:24:34;50;38;19
44871;PMS7003;30602;51.060;17.226;2024-01-11T10:28:30;51;30;19
44871;PMS7003;30602;51.060;17.226;2024-01-11T10:32:32;41;22;15
44871;PMS7003;30602;51.060;17.226;2024-01-11T10:36:02;51;36;20
44871;PMS7003;30602;51.060;17.226;2024-01-11T10:40:02;50;37;20
44871;PMS7003;30602;51.060;17.226;2024-01-11T10:43:47;35;21;15
44871;PMS7003;30602;51.060;17.226;2024-01-11T10:47:21;39;28;19
44871;PMS7003;30602;51.060;17.226;2024-01-11T10:51:12;37;29;17
44871;PMS7003;30602;51.060;17.226;2024-01-11T10:55:16;32;23;15
44871;PMS7003;30602;51.060;17.226;2024-01-11T10:59:15;33;28;16
44871;PMS7003;30602;51.060;17.226;2024-01-11T11:02:44;39;30;17
44871;PMS7003;30602;51.060;17.226;2024-01-11T11:07:15;55;42;27
44871;PMS7003;30602;51.060;17.226;2024-01-11T11:10:46;54;38;22
44871;PMS7003;30602;51.060;17.226;2024-01-11T11:14:36;43;34;19
44871;PMS7003;30602;51.060;17.226;2024-01-11T11:18:08;52;38;24
44871;PMS7003;30602;51.060;17.226;2024-01-11T11:21:47;45;35;21
44871;PMS7003;30602;51.060;17.226;2024-01-11T11:25:32;42;36;21
44871;PMS7003;30602;51.060;17.226;2024-01-11T11:29:35;67;50;27
44871;PMS7003;30602;51.060;17.226;2024-01-11T11:37:12;40;34;19
44871;PMS7003;30602;51.060;17.226;2024-01-11T11:40:52;38;33;20
44871;PMS7003;30602;51.060;17.226;2024-01-11T11:45:26;42;36;19
44871;PMS7003;30602;51.060;17.226;2024-01-11T11:48:54;33;28;17
44871;PMS7003;30602;51.060;17.226;2024-01-11T11:52:32;39;35;21
44871;PMS7003;30602;51.060;17.226;2024-01-11T11:56:35;39;31;21
44871;PMS7003;30602;51.060;17.226;2024-01-11T12:00:24;34;30;19
44871;PMS7003;30602;51.060;17.226;2024-01-11T12:08:17;39;31;20
44871;PMS7003;30602;51.060;17.226;2024-01-11T12:11:50;45;37;21
44871;PMS7003;30602;51.060;17.226;2024-01-11T12:15:45;40;33;23
44871;PMS7003;30602;51.060;17.226;2024-01-11T12:19:51;51;39;21
44871;PMS7003;30602;51.060;17.226;2024-01-11T12:23:15;50;36;20
44871;PMS7003;30602;51.060;17.226;2024-01-11T12:27:03;54;39;23
44871;PMS7003;30602;51.060;17.226;2024-01-11T12:30:29;41;29;17
44871;PMS7003;30602;51.060;17.226;2024-01-11T12:34:53;45;33;22
44871;PMS7003;30602;51.060;17.226;2024-01-11T12:38:53;50;39;23
44871;PMS7003;30602;51.060;17.226;2024-01-11T12:42:44;48;36;19
44871;PMS7003;30602;51.060;17.226;2024-01-11T12:46:53;40;31;17
44871;PMS7003;30602;51.060;17.226;2024-01-11T12:50:50;44;38;22
44871;PMS7003;30602;51.060;17.226;2024-01-11T12:55:19;36;31;17
44871;PMS7003;30602;51.060;17.226;2024-01-11T12:58:48;49;40;22
44871;PMS7003;30602;51.060;17.226;2024-01-11T13:02:48;54;40;22
44871;PMS7003;30602;51.060;17.226;2024-01-11T13:06:17;47;36;19
44871;PMS7003;30602;51.060;17.226;2024-01-11T13:09:49;49;37;23
44871;PMS7003;30602;51.060;17.226;2024-01-11T13:13:27;56;41;22
44871;PMS7003;30602;51.060;17.226;2024-01-11T13:16:55;47;41;24
44871;PMS7003;30602;51.060;17.226;2024-01-11T13:20:51;51;41;22
44871;PMS7003;30602;51.060;17.226;2024-01-11T13:24:46;59;43;25
44871;PMS7003;30602;51.060;17.226;2024-01-11T13:28:38;62;42;23
44871;PMS7003;30602;51.060;17.226;2024-01-11T13:32:01;56;41;24
44871;PMS7003;30602;51.060;17.226;2024-01-11T13:35:55;46;36;22
44871;PMS7003;30602;51.060;17.226;2024-01-11T13:39:37;50;39;21
44871;PMS7003;30602;51.060;17.226;2024-01-11T13:44:10;60;45;25
44871;PMS7003;30602;51.060;17.226;2024-01-11T13:47:59;52;41;22
44871;PMS7003;30602;51.060;17.226;2024-01-11T13:51:36;58;36;24
44871;PMS7003;30602;51.060;17.226;2024-01-11T13:55:30;55;43;23
44871;PMS7003;30602;51.060;17.226;2024-01-11T14:03:21;58;43;23
44871;PMS7003;30602;51.060;17.226;2024-01-11T14:06:39;49;39;24
44871;PMS7003;30602;51.060;17.226;2024-01-11T14:10:22;54;39;22
44871;PMS7003;30602;51.060;17.226;2024-01-11T14:14:17;40;35;21
44871;PMS7003;30602;51.060;17.226;2024-01-11T14:17:49;47;36;21
44871;PMS7003;30602;51.060;17.226;2024-01-11T14:21:35;53;42;22
44871;PMS7003;30602;51.060;17.226;2024-01-11T14:25:01;47;38;24
44871;PMS7003;30602;51.060;17.226;2024-01-11T14:28:27;37;35;23
44871;PMS7003;30602;51.060;17.226;2024-01-11T14:32:07;55;39;24
44871;PMS7003;30602;51.060;17.226;2024-01-11T14:36:42;49;39;23
44871;PMS7003;30602;51.060;17.226;2024-01-11T14:40:06;45;37;22
44871;PMS7003;30602;51.060;17.226;2024-01-11T14:43:42;54;43;26
44871;PMS7003;30602;51.060;17.226;2024-01-11T14:47:09;61;42;23
44871;PMS7003;30602;51.060;17.226;2024-01-11T14:50:49;58;42;24
44871;PMS7003;30602;51.060;17.226;2024-01-11T14:54:50;53;40;23
44871;PMS7003;30602;51.060;17.226;2024-01-11T14:58:22;45;35;21
44871;PMS7003;30602;51.060;17.226;2024-01-11T15:02:21;65;48;30
44871;PMS7003;30602;51.060;17.226;2024-01-11T15:06:16;60;44;27
44871;PMS7003;30602;51.060;17.226;2024-01-11T15:09:56;57;42;28
44871;PMS7003;30602;51.060;17.226;2024-01-11T15:13:42;41;35;25
44871;PMS7003;30602;51.060;17.226;2024-01-11T15:17:40;35;30;20
44871;PMS7003;30602;51.060;17.226;2024-01-11T15:21:21;25;21;14
44871;PMS7003;30602;51.060;17.226;2024-01-11T15:25:08;28;20;11
44871;PMS7003;30602;51.060;17.226;2024-01-11T15:29:05;29;20;11
44871;PMS7003;30602;51.060;17.226;2024-01-11T15:32:39;44;30;15
44871;PMS7003;30602;51.060;17.226;2024-01-11T15:36:03;29;20;11
44871;PMS7003;30602;51.060;17.226;2024-01-11T15:39:34;28;22;13
44871;PMS7003;30602;51.060;17.226;2024-01-11T15:43:22;42;31;17
44871;PMS7003;30602;51.060;17.226;2024-01-11T15:47:29;55;38;20
44871;PMS7003;30602;51.060;17.226;2024-01-11T15:50:57;45;37;21
44871;PMS7003;30602;51.060;17.226;2024-01-11T15:54:56;37;27;13
44871;PMS7003;30602;51.060;17.226;2024-01-11T15:58:31;54;38;19
44871;PMS7003;30602;51.060;17.226;2024-01-11T16:01:57;30;24;15
44871;PMS7003;30602;51.060;17.226;2024-01-11T16:05:22;38;27;15
44871;PMS7003;30602;51.060;17.226;2024-01-11T16:09:15;28;23;15
44871;PMS7003;30602;51.060;17.226;2024-01-11T16:13:00;34;26;13
44871;PMS7003;30602;51.060;17.226;2024-01-11T16:16:46;37;31;16
44871;PMS7003;30602;51.060;17.226;2024-01-11T16:20:13;38;31;18
44871;PMS7003;30602;51.060;17.226;2024-01-11T16:23:38;26;20;14
44871;PMS7003;30602;51.060;17.226;2024-01-11T16:27:29;37;29;16
44871;PMS7003;30602;51.060;17.226;2024-01-11T16:31:05;27;22;16
44871;PMS7003;30602;51.060;17.226;2024-01-11T16:34:50;38;32;18
44871;PMS7003;30602;51.060;17.226;2024-01-11T16:38:39;40;31;18
44871;PMS7003;30602;51.060;17.226;2024-01-11T16:42:29;39;32;19
44871;PMS7003;30602;51.060;17.226;2024-01-11T16:46:35;60;43;22
44871;PMS7003;30602;51.060;17.226;2024-01-11T16:50:37;26;22;16
44871;PMS7003;30602;51.060;17.226;2024-01-11T16:54:18;38;28;15
44871;PMS7003;30602;51.060;17.226;2024-01-11T16:58:04;31;24;16
44871;PMS7003;30602;51.060;17.226;2024-01-11T17:01:27;36;30;19
44871;PMS7003;30602;51.060;17.226;2024-01-11T17:05:23;38;30;17
44871;PMS7003;30602;51.060;17.226;2024-01-11T17:10:22;42;36;19
44871;PMS7003;30602;51.060;17.226;2024-01-11T17:14:49;34;28;15
44871;PMS7003;30602;51.060;17.226;2024-01-11T17:18:34;37;30;19
44871;PMS7003;30602;51.060;17.226;2024-01-11T17:22:00;36;27;15
44871;PMS7003;30602;51.060;17.226;2024-01-11T17:25:44;31;24;16
44871;PMS7003;30602;51.060;17.226;2024-01-11T17:29:31;39;30;18
44871;PMS7003;30602;51.060;17.226;2024-01-11T17:33:00;44;35;20
44871;PMS7003;30602;51.060;17.226;2024-01-11T17:36:47;42;38;23
44871;PMS7003;30602;51.060;17.226;2024-01-11T17:40:13;41;32;18
44871;PMS7003;30602;51.060;17.226;2024-01-11T17:43:48;46;39;24
44871;PMS7003;30602;51.060;17.226;2024-01-11T17:47:13;37;27;16
44871;PMS7003;30602;51.060;17.226;2024-01-11T17:50:44;31;25;12
44871;PMS7003;30602;51.060;17.226;2024-01-11T17:54:14;47;35;21
44871;PMS7003;30602;51.060;17.226;2024-01-11T18:01:43;47;39;23
44871;PMS7003;30602;51.060;17.226;2024-01-11T18:05:09;44;39;26
44871;PMS7003;30602;51.060;17.226;2024-01-11T18:09:03;40;29;20
44871;PMS7003;30602;51.060;17.226;2024-01-11T18:12:58;48;41;22
44871;PMS7003;30602;51.060;17.226;2024-01-11T18:17:03;52;39;22
44871;PMS7003;30602;51.060;17.226;2024-01-11T18:20:33;49;38;22
44871;PMS7003;30602;51.060;17.226;2024-01-11T18:24:42;45;34;22
44871;PMS7003;30602;51.060;17.226;2024-01-11T18:28:35;53;41;22
44871;PMS7003;30602;51.060;17.226;2024-01-11T18:32:29;43;30;18
44871;PMS7003;30602;51.060;17.226;2024-01-11T18:36:03;62;48;28
44871;PMS7003;30602;51.060;17.226;2024-01-11T18:39:36;55;44;29
44871;PMS7003;30602;51.060;17.226;2024-01-11T18:43:13;48;39;23
44871;PMS7003;30602;51.060;17.226;2024-01-11T18:47:03;42;35;21
44871;PMS7003;30602;51.060;17.226;2024-01-11T18:50:51;75;55;30
44871;PMS7003;30602;51.060;17.226;2024-01-11T18:55:26;68;52;29
44871;PMS7003;30602;51.060;17.226;2024-01-11T18:59:19;55;46;29
44871;PMS7003;30602;51.060;17.226;2024-01-11T19:02:50;70;54;33
44871;PMS7003;30602;51.060;17.226;2024-01-11T19:06:49;49;42;23
44871;PMS7003;30602;51.060;17.226;2024-01-11T19:10:35;66;50;30
44871;PMS7003;30602;51.060;17.226;2024-01-11T19:14:03;56;41;25
44871;PMS7003;30602;51.060;17.226;2024-01-11T19:18:04;58;44;24
44871;PMS7003;30602;51.060;17.226;2024-01-11T19:21:51;61;45;28
44871;PMS7003;30602;51.060;17.226;2024-01-11T19:25:37;60;45;29
44871;PMS7003;30602;51.060;17.226;2024-01-11T19:29:21;61;42;22
44871;PMS7003;30602;51.060;17.226;2024-01-11T19:33:31;42;37;19
44871;PMS7003;30602;51.060;17.226;2024-01-11T19:37:19;56;44;27
44871;PMS7003;30602;51.060;17.226;2024-01-11T19:40:46;55;43;26
44871;PMS7003;30602;51.060;17.226;2024-01-11T19:44:29;70;53;31
44871;PMS7003;30602;51.060;17.226;2024-01-11T19:48:22;64;52;31
44871;PMS7003;30602;51.060;17.226;2024-01-11T19:51:55;63;50;30
44871;PMS7003;30602;51.060;17.226;2024-01-11T19:55:27;78;58;33
44871;PMS7003;30602;51.060;17.226;2024-01-11T19:59:29;72;54;32
44871;PMS7003;30602;51.060;17.226;2024-01-11T20:02:59;58;46;25
44871;PMS7003;30602;51.060;17.226;2024-01-11T20:06:29;60;47;29
44871;PMS7003;30602;51.060;17.226;2024-01-11T20:14:11;66;55;32
44871;PMS7003;30602;51.060;17.226;2024-01-11T20:17:58;93;70;41
44871;PMS7003;30602;51.060;17.226;2024-01-11T20:21:30;85;64;36
44871;PMS7003;30602;51.060;17.226;2024-01-11T20:25:04;71;50;29
44871;PMS7003;30602;51.060;17.226;2024-01-11T20:33:37;56;43;28
44871;PMS7003;30602;51.060;17.226;2024-01-11T20:37:41;68;49;27
44871;PMS7003;30602;51.060;17.226;2024-01-11T20:41:27;54;45;29
44871;PMS7003;30602;51.060;17.226;2024-01-11T20:44:57;41;35;21
44871;PMS7003;30602;51.060;17.226;2024-01-11T20:48:51;48;38;22
44871;PMS7003;30602;51.060;17.226;2024-01-11T20:52:35;59;47;29
44871;PMS7003;30602;51.060;17.226;2024-01-11T20:56:06;62;48;29
44871;PMS7003;30602;51.060;17.226;2024-01-11T20:59:54;48;42;23
44871;PMS7003;30602;51.060;17.226;2024-01-11T21:03:28;43;30;18
44871;PMS7003;30602;51.060;17.226;2024-01-11T21:06:54;48;37;25
44871;PMS7003;30602;51.060;17.226;2024-01-11T21:10:39;62;48;26
44871;PMS7003;30602;51.060;17.226;2024-01-11T21:15:06;44;38;22
44871;PMS7003;30602;51.060;17.226;2024-01-11T21:19:40;64;48;27
44871;PMS7003;30602;51.060;17.226;2024-01-11T21:24:02;67;49;25
44871;PMS7003;30602;51.060;17.226;2024-01-11T21:27:41;71;52;29
44871;PMS7003;30602;51.060;17.226;2024-01-11T21:31:38;72;54;29
44871;PMS7003;30602;51.060;17.226;2024-01-11T21:35:32;66;49;30
44871;PMS7003;30602;51.060;17.226;2024-01-11T21:44:31;52;33;18
44871;PMS7003;30602;51.060;17.226;2024-01-11T21:52:03;47;36;19
44871;PMS7003;30602;51.060;17.226;2024-01-11T21:56:37;50;41;25
44871;PMS7003;30602;51.060;17.226;2024-01-11T21:59:59;46;33;20
44871;PMS7003;30602;51.060;17.226;2024-01-11T22:03:54;39;31;20
44871;PMS7003;30602;51.060;17.226;2024-01-11T22:08:32;51;40;22
44871;PMS7003;30602;51.060;17.226;2024-01-11T22:12:12;47;41;20
44871;PMS7003;30602;51.060;17.226;2024-01-11T22:16:14;39;32;19
44871;PMS7003;30602;51.060;17.226;2024-01-11T22:19:52;33;29;16
44871;PMS7003;30602;51.060;17.226;2024-01-11T22:23:19;33;29;20
44871;PMS7003;30602;51.060;17.226;2024-01-11T22:27:09;47;36;19
44871;PMS7003;30602;51.060;17.226;2024-01-11T22:30:59;57;40;21
44871;PMS7003;30602;51.060;17.226;2024-01-11T22:35:05;32;26;15
44871;PMS7003;30602;51.060;17.226;2024-01-11T22:38:29;32;28;16
44871;PMS7003;30602;51.060;17.226;2024-01-11T22:41:55;23;21;14
44871;PMS7003;30602;51.060;17.226;2024-01-11T22:45:24;63;48;27
44871;PMS7003;30602;51.060;17.226;2024-01-11T22:49:35;40;34;22
44871;PMS7003;30602;51.060;17.226;2024-01-11T22:53:22;34;28;17
44871;PMS7003;30602;51.060;17.226;2024-01-11T22:56:47;28;25;12
44871;PMS7003;30602;51.060;17.226;2024-01-11T23:00:23;33;23;14
44871;PMS7003;30602;51.060;17.226;2024-01-11T23:04:15;31;28;16
44871;PMS7003;30602;51.060;17.226;2024-01-11T23:08:01;39;30;15
44871;PMS7003;30602;51.060;17.226;2024-01-11T23:12:10;37;30;20
44871;PMS7003;30602;51.060;17.226;2024-01-11T23:15:52;54;42;26
44871;PMS7003;30602;51.060;17.226;2024-01-11T23:19:33;28;25;16
44871;PMS7003;30602;51.060;17.226;2024-01-11T23:23:14;31;25;15
44871;PMS7003;30602;51.060;17.226;2024-01-11T23:27:13;33;22;13
44871;PMS7003;30602;51.060;17.226;2024-01-11T23:31:27;26;19;11
44871;PMS7003;30602;51.060;17.226;2024-01-11T23:34:48;28;23;13
44871;PMS7003;30602;51.060;17.226;2024-01-11T23:38:31;28;25;15
44871;PMS7003;30602;51.060;17.226;2024-01-11T23:42:14;34;25;15
44871;PMS7003;30602;51.060;17.226;2024-01-11T23:46:07;37;28;14
44871;PMS7003;30602;51.060;17.226;2024-01-11T23:50:08;30;22;12
44871;PMS7003;30602;51.060;17.226;2024-01-11T23:53:55;25;21;13
44871;PMS7003;30602;51.060;17.226;2024-01-11T23:57:22;23;16;8
